Thursday, October 23, 2014
06:44 UTC
  |  Log In   |  Register Free
Airport Search:

Gainesville Municipal Airport
(KGLE)

FAA data valid effective September 18, 2014 - November 13, 2014 (unless otherwise noted).

 
 
 
 
 
 
 
 
 
 
 
 
 
 

Current Aviation Weather for Gainesville Municipal Airport (KGLE)

The most recent METAR observation for KGLE was updated at: 0611
METAR Summary (Translated METAR)
KGLE
230555Z AUTO 12006KT 10SM SCT085 SCT120 19/13 A3013 RMK AO2 T01850130 10221 20185 402580136
KGYI
230555Z AUTO 11007KT 10SM SCT120 19/13 A3013 RMK AO2 T01880132 10220 20188 402650155
(26.4 nm NE from KGLE)
KDTO
230553Z AUTO 13004KT 10SM FEW075 BKN110 19/15 A3010 RMK AO2 RAB06E41 SLP186 P0001 60001 T01940150 10239 20189 402610122 56003
(27 nm SW from KGLE)
TAF
No TAF information found within 50 nm of KGLE
  Airport Weather Conditions for KGLE

 Current Weather at GLE
65° F
Partly Cloudy
Southeast winds at 6.9 mph
GLE NOAA Radar

Pressure: 30.13 in
Humidity: 71%
Wind: Southeast at 6.9 MPH (6 KT)
Dew Point: 55.4°F
Visibility: 10.00 mi


Airport Weather Forecast for KGLE

Translated METAR and TAF for KGLE
Translated METAR for KGLE (0639 UTC 23 October 2014)
found at http://aviationweather.gov/adds/metars/
 
METAR text: KGLE 230615Z AUTO 13005KT 10SM SCT085 SCT120 18/13 A3013 RMK AO2 T01820130
Conditions at: KGLE (GAINESVILLE , TX, US) observed 0615 UTC 23 October 2014
Temperature: 18.2°C (65°F)
Dewpoint: 13.0°C (55°F) [RH = 72%]
Pressure (altimeter): 30.13 inches Hg (1020.4 mb)
Winds: from the SE (130 degrees) at 6 MPH (5 knots; 2.6 m/s)
Visibility: 10 or more miles (16+ km)
Ceiling: at least 12,000 feet AGL
Clouds: scattered clouds at 8500 feet AGL
scattered clouds at 12000 feet AGL
Weather: automated observation with no human augmentation;
there may or may not be significant weather present at this time
Translated TAF for KGLE

There is no translated TAF available for this airport

Find All Airport Services Find A Hotel Find A Rental Car Find A Golf Course Find A Restaurant $100 Hamburger



FBO's on the Field
FBO Company Facility Photos Services Transportation Aviation Fuel Prices: Prices include tax
Catering Weather Repair Courtesy Rental Type 100LL JetA JetA+ MOGAS 8087
 
City of Gainesville Municipal Airport

This FBO has not yet been rated
FS: Phillips 66
Last Updated: Oct-07
Login to update fuel prices
SS:
Contact City of Gainesville Municipal AirportMore FBO Information
 
Add another FBO Facility Photos Catering Weather Repair Courtesy Rental Type 100LL JetA JetA+ MOGAS 8087
Services Transportation Aviation Fuel Prices: Prices include tax


model-print
model-print
model-print
model-print